Time;durP1;ratioP1;P1;durP2;ratioP2;P2;SDS_P1;SDS_P2;PMS_P1;PMS_P2;Temp;Humidity;BMP_temperature;BMP_pressure;BME280_temperature;BME280_humidity;BME280_pressure;Samples;Min_cycle;Max_cycle;Signal;HPM_P1;HPM_P2
2021/08/25 00:07:07;;;;;;;1.13;0.68;;;13.00;99.90;;;;;;21109384;28;20366;-47
2021/08/25 00:17:10;;;;;;;0.70;0.40;;;13.00;99.90;;;;;;21071620;28;20036;-46
2021/08/25 00:27:12;;;;;;;0.30;0.25;;;12.90;99.90;;;;;;21072461;28;20029;-51
2021/08/25 00:37:13;;;;;;;0.38;0.10;;;12.60;99.90;;;;;;21100356;28;20052;-46
2021/08/25 00:47:18;;;;;;;0.25;0.20;;;12.30;99.90;;;;;;21071444;28;20028;-45
2021/08/25 00:57:20;;;;;;;1.27;0.30;;;12.10;99.90;;;;;;21070479;28;20032;-47
2021/08/25 01:07:25;;;;;;;0.22;0.13;;;12.00;99.90;;;;;;21103798;28;20469;-49
2021/08/25 01:17:27;;;;;;;0.28;0.20;;;11.90;99.90;;;;;;21159249;28;20410;-48
2021/08/25 01:27:30;;;;;;;0.43;0.00;;;11.90;99.90;;;;;;21084919;28;20024;-45
2021/08/25 01:37:32;;;;;;;0.08;0.00;;;11.80;99.90;;;;;;21152812;28;20040;-50
2021/08/25 01:47:33;;;;;;;0.43;0.00;;;11.80;99.90;;;;;;21167211;28;20155;-47
2021/08/25 01:57:35;;;;;;;0.10;0.10;;;11.70;99.90;;;;;;21166432;28;20031;-46
2021/08/25 02:07:37;;;;;;;0.25;0.20;;;11.50;99.90;;;;;;21080657;28;20039;-49
2021/08/25 02:17:40;;;;;;;0.13;0.08;;;11.50;99.90;;;;;;20996663;28;20044;-47
2021/08/25 02:27:42;;;;;;;0.00;0.00;;;11.50;99.90;;;;;;20994725;28;20086;-45
2021/08/25 02:37:44;;;;;;;0.00;0.00;;;11.40;99.90;;;;;;21141657;28;20401;-47
2021/08/25 02:47:45;;;;;;;0.00;0.00;;;11.40;99.90;;;;;;21162456;28;20036;-45
2021/08/25 02:57:47;;;;;;;0.08;0.00;;;11.50;99.90;;;;;;21161313;28;20039;-45
2021/08/25 03:07:49;;;;;;;0.10;0.00;;;11.70;99.90;;;;;;21160508;28;20035;-45
2021/08/25 03:17:50;;;;;;;0.25;0.00;;;11.90;99.90;;;;;;21159558;28;20100;-45
2021/08/25 03:27:52;;;;;;;0.00;0.00;;;12.10;99.90;;;;;;21155189;28;20028;-45
2021/08/25 03:37:53;;;;;;;0.00;0.00;;;12.20;99.90;;;;;;21154129;28;20048;-45
2021/08/25 03:47:55;;;;;;;0.00;0.00;;;12.20;99.90;;;;;;21157759;28;20465;-48
2021/08/25 03:58:00;;;;;;;0.10;0.00;;;12.10;99.90;;;;;;21157096;28;20020;-45
2021/08/25 04:08:01;;;;;;;0.30;0.10;;;11.80;99.90;;;;;;21102388;28;20430;-46
2021/08/25 04:18:03;;;;;;;0.50;0.30;;;11.50;99.90;;;;;;21065715;28;20077;-47
2021/08/25 04:28:05;;;;;;;0.10;0.10;;;11.50;99.90;;;;;;21071700;28;20035;-44
2021/08/25 04:38:06;;;;;;;0.50;0.10;;;11.50;99.90;;;;;;21098490;28;20043;-48
2021/08/25 04:48:08;;;;;;;0.20;0.03;;;11.60;99.90;;;;;;21070994;28;20307;-44
2021/08/25 04:58:09;;;;;;;0.03;0.00;;;11.70;99.90;;;;;;21086782;28;20034;-45
2021/08/25 05:08:11;;;;;;;0.25;0.10;;;11.70;99.90;;;;;;21126882;28;20039;-45
2021/08/25 05:18:13;;;;;;;0.03;0.03;;;11.80;99.90;;;;;;21161119;28;20474;-47
2021/08/25 05:28:15;;;;;;;0.10;0.00;;;11.90;99.90;;;;;;21085008;28;20055;-45
2021/08/25 05:41:58;;;;;;;0.20;0.10;;;12.10;99.90;;;;;;21060979;28;20108;-49
2021/08/25 05:52:00;;;;;;;0.00;0.00;;;12.70;99.90;;;;;;21060055;28;20625;-46
2021/08/25 06:02:01;;;;;;;0.10;0.10;;;13.20;99.90;;;;;;21059400;28;20382;-46
2021/08/25 06:12:04;;;;;;;0.00;0.00;;;13.50;99.90;;;;;;21058434;28;20040;-47
2021/08/25 06:22:05;;;;;;;0.10;0.10;;;14.00;99.90;;;;;;21057710;28;20074;-48
2021/08/25 06:32:07;;;;;;;0.25;0.15;;;14.50;99.90;;;;;;21056906;28;20482;-47
2021/08/25 06:42:09;;;;;;;0.20;0.10;;;15.40;99.90;;;;;;21056695;28;20082;-48
2021/08/25 06:52:11;;;;;;;0.10;0.10;;;15.40;99.90;;;;;;21005238;28;20029;-52
2021/08/25 07:02:13;;;;;;;0.00;0.00;;;15.90;99.90;;;;;;20996512;28;20067;-47
2021/08/25 07:12:15;;;;;;;0.22;0.10;;;16.50;99.90;;;;;;20998664;28;20025;-48
2021/08/25 07:22:17;;;;;;;0.20;0.10;;;17.70;99.90;;;;;;20998866;28;20108;-52
2021/08/25 07:32:18;;;;;;;0.30;0.00;;;19.50;99.60;;;;;;20998141;28;20558;-53
2021/08/25 07:42:20;;;;;;;0.68;0.10;;;20.50;98.00;;;;;;20996905;28;20432;-50
2021/08/25 07:52:23;;;;;;;0.10;0.10;;;21.30;97.80;;;;;;20995297;28;20036;-50
2021/08/25 08:02:24;;;;;;;0.30;0.20;;;20.50;97.60;;;;;;20993698;28;20028;-50
2021/08/25 08:12:26;;;;;;;0.38;0.20;;;20.20;98.40;;;;;;20993418;28;20478;-48
2021/08/25 08:22:28;;;;;;;0.30;0.30;;;20.60;98.20;;;;;;20993017;28;20032;-47
2021/08/25 08:32:30;;;;;;;0.30;0.10;;;21.00;97.40;;;;;;20991409;28;20041;-49
2021/08/25 08:42:36;;;;;;;0.28;0.20;;;21.00;96.60;;;;;;20991143;28;20051;-48
2021/08/25 08:52:38;;;;;;;0.95;0.28;;;22.00;95.40;;;;;;20992101;28;20032;-51
2021/08/25 09:02:41;;;;;;;0.75;0.40;;;20.80;97.30;;;;;;20990899;28;20028;-49
2021/08/25 09:12:52;;;;;;;0.98;0.57;;;21.10;97.60;;;;;;20990146;28;20028;-52
2021/08/25 09:23:21;;;;;;;1.20;0.90;;;20.10;99.20;;;;;;20988217;28;20033;-50
2021/08/25 09:33:26;;;;;;;1.23;0.77;;;18.40;99.90;;;;;;20987908;28;20105;-47
2021/08/25 09:43:35;;;;;;;1.42;0.90;;;18.70;99.90;;;;;;20987840;28;20028;-49
2021/08/25 09:53:37;;;;;;;;;;;19.10;99.90;;;;;;20987814;28;20477;-53
2021/08/25 10:03:39;;;;;;;1.75;1.10;;;18.90;99.90;;;;;;20987092;28;19935;-49
2021/08/25 10:13:47;;;;;;;3.00;1.50;;;19.40;99.90;;;;;;20986611;28;20032;-49
2021/08/25 10:24:01;;;;;;;1.90;1.57;;;20.00;99.90;;;;;;20994572;28;20025;-50
2021/08/25 10:34:18;;;;;;;1.63;1.38;;;19.30;99.90;;;;;;21001196;28;20344;-52
2021/08/25 10:44:40;;;;;;;1.30;1.00;;;19.00;99.90;;;;;;21000509;28;20476;-51
2021/08/25 10:54:46;;;;;;;2.03;1.55;;;19.70;99.90;;;;;;20999892;28;20556;-50
2021/08/25 11:04:48;;;;;;;1.85;1.60;;;18.80;99.90;;;;;;20999014;28;20531;-50
2021/08/25 11:14:56;;;;;;;4.38;1.85;;;17.60;99.90;;;;;;20999563;28;20394;-50
2021/08/25 11:25:10;;;;;;;1.25;1.13;;;16.80;99.90;;;;;;20997173;28;20043;-49
2021/08/25 11:35:14;;;;;;;1.05;0.95;;;16.70;99.90;;;;;;20996438;28;20406;-48
2021/08/25 11:45:21;;;;;;;1.08;0.98;;;17.10;99.90;;;;;;20996968;28;20036;-47
2021/08/25 11:55:23;;;;;;;3.35;0.80;;;;;;;;;;20994530;28;20044;-51
2021/08/25 12:05:28;;;;;;;1.88;0.60;;;16.60;99.90;;;;;;20993895;28;20033;-51
2021/08/25 12:15:49;;;;;;;0.90;0.73;;;16.20;99.90;;;;;;20993226;28;20031;-48
2021/08/25 12:25:54;;;;;;;0.88;0.60;;;21.10;99.90;;;;;;20991977;28;20039;-49
2021/08/25 12:36:30;;;;;;;1.08;0.80;;;22.20;99.20;;;;;;20990888;28;20036;-48
2021/08/25 12:46:47;;;;;;;0.60;0.50;;;24.80;94.50;;;;;;20990288;28;20041;-49
2021/08/25 12:56:49;;;;;;;2.38;0.63;;;24.20;91.30;;;;;;20989687;28;20032;-48
2021/08/25 13:06:51;;;;;;;0.82;0.43;;;24.00;91.70;;;;;;20989961;28;20028;-53
2021/08/25 13:16:53;;;;;;;0.40;0.40;;;23.00;90.70;;;;;;20989067;28;20035;-49
2021/08/25 13:26:55;;;;;;;0.95;0.30;;;23.20;91.00;;;;;;20989650;28;20478;-51
2021/08/25 13:36:57;;;;;;;1.40;0.60;;;22.40;92.10;;;;;;20989545;28;20049;-48
2021/08/25 13:47:07;;;;;;;0.93;0.60;;;21.80;92.10;;;;;;20989090;28;20094;-53
2021/08/25 13:57:17;;;;;;;0.30;0.30;;;20.40;93.40;;;;;;20994630;28;20125;-51
2021/08/25 14:07:19;;;;;;;0.63;0.40;;;20.10;94.90;;;;;;21004724;28;20047;-51
2021/08/25 14:17:21;;;;;;;0.65;0.52;;;;;;;;;;21004026;28;20431;-53
2021/08/25 14:27:23;;;;;;;0.60;0.50;;;19.50;95.40;;;;;;21001754;28;20098;-50
2021/08/25 14:37:25;;;;;;;2.25;0.50;;;18.00;96.70;;;;;;21001895;28;20041;-51
2021/08/25 14:47:27;;;;;;;0.60;0.50;;;17.80;96.70;;;;;;21001525;28;20422;-48
2021/08/25 14:57:29;;;;;;;1.65;0.50;;;17.70;97.50;;;;;;20998679;28;20036;-48
2021/08/25 15:07:31;;;;;;;2.05;0.77;;;17.90;97.70;;;;;;20997818;28;20516;-49
2021/08/25 15:17:34;;;;;;;2.47;0.88;;;18.10;98.90;;;;;;20998316;28;20086;-49
2021/08/25 15:27:38;;;;;;;1.95;0.80;;;18.50;97.90;;;;;;20997580;28;20044;-52
2021/08/25 15:37:46;;;;;;;0.90;0.52;;;18.50;97.60;;;;;;20996993;28;20041;-53
2021/08/25 15:47:48;;;;;;;1.73;0.60;;;17.90;98.20;;;;;;20996422;28;20058;-49
2021/08/25 15:57:50;;;;;;;2.25;0.98;;;17.50;99.90;;;;;;20994471;28;20055;-51
2021/08/25 16:07:52;;;;;;;1.60;1.30;;;17.60;99.90;;;;;;20993711;28;20106;-50
2021/08/25 16:17:53;;;;;;;3.80;1.40;;;17.80;99.90;;;;;;20992393;28;20486;-52
2021/08/25 16:27:55;;;;;;;3.85;1.65;;;17.60;99.60;;;;;;20992030;28;20029;-50
2021/08/25 16:37:57;;;;;;;1.63;1.27;;;17.30;99.90;;;;;;20990600;28;20052;-47
2021/08/25 16:47:59;;;;;;;2.00;1.50;;;17.10;99.90;;;;;;20990387;28;20020;-50
2021/08/25 16:58:03;;;;;;;1.63;1.25;;;16.90;99.90;;;;;;20990166;28;20029;-48
2021/08/25 17:08:12;;;;;;;2.17;1.42;;;16.90;99.90;;;;;;20989366;28;20551;-47
2021/08/25 17:18:14;;;;;;;1.80;1.50;;;16.80;99.90;;;;;;20971016;28;20106;-50
2021/08/25 17:28:19;;;;;;;1.35;1.08;;;16.40;99.90;;;;;;20988393;28;20417;-52
2021/08/25 17:38:22;;;;;;;3.50;1.45;;;15.30;99.90;;;;;;20987853;28;20126;-49
2021/08/25 17:48:24;;;;;;;2.45;1.48;;;14.40;99.90;;;;;;20987740;28;20028;-48
2021/08/25 17:58:27;;;;;;;3.55;2.10;;;13.60;99.90;;;;;;20986177;28;20382;-50
2021/08/25 18:08:29;;;;;;;4.45;2.00;;;13.30;99.90;;;;;;20986778;28;20025;-53
2021/08/25 18:18:32;;;;;;;3.22;2.13;;;13.00;99.90;;;;;;20986554;28;20054;-48
2021/08/25 18:28:35;;;;;;;3.30;2.50;;;12.80;99.90;;;;;;20987195;28;20037;-48
2021/08/25 18:38:36;;;;;;;3.60;2.80;;;12.80;99.90;;;;;;20984956;28;20427;-50
2021/08/25 18:48:38;;;;;;;4.93;2.58;;;12.50;99.90;;;;;;20999686;28;20036;-48
2021/08/25 18:58:41;;;;;;;4.15;2.80;;;12.50;99.90;;;;;;20996910;28;20059;-49
2021/08/25 19:08:43;;;;;;;5.07;2.75;;;12.40;99.90;;;;;;20998370;28;20051;-53
2021/08/25 19:18:45;;;;;;;5.35;2.83;;;12.40;99.90;;;;;;20997771;28;20029;-48
2021/08/25 19:28:47;;;;;;;11.52;8.20;;;12.50;99.90;;;;;;20997677;28;20039;-49
2021/08/25 19:38:49;;;;;;;6.07;2.47;;;12.60;99.90;;;;;;20996440;28;20102;-47
2021/08/25 19:48:54;;;;;;;5.28;2.63;;;12.80;99.90;;;;;;20995107;28;20486;-51
2021/08/25 19:58:57;;;;;;;2.75;2.10;;;12.90;99.90;;;;;;20994131;28;20036;-48
2021/08/25 20:09:00;;;;;;;3.55;2.72;;;13.10;99.90;;;;;;20993363;28;20028;-48
2021/08/25 20:19:01;;;;;;;7.53;3.60;;;13.10;99.90;;;;;;20992535;28;20043;-52
2021/08/25 20:29:03;;;;;;;3.70;2.50;;;13.40;99.90;;;;;;20991264;28;20478;-50
2021/08/25 20:39:06;;;;;;;4.10;2.50;;;13.70;99.90;;;;;;20990167;28;20070;-49
2021/08/25 20:49:09;;;;;;;7.03;2.90;;;13.80;99.90;;;;;;20989910;28;20028;-48
2021/08/25 20:59:13;;;;;;;7.90;4.35;;;13.70;99.90;;;;;;20989783;28;20036;-48
2021/08/25 21:09:16;;;;;;;8.73;4.55;;;13.30;99.90;;;;;;20988547;28;20029;-49
2021/08/25 21:19:18;;;;;;;6.53;4.72;;;12.90;99.90;;;;;;20988485;28;20033;-52
2021/08/25 21:29:19;;;;;;;7.05;4.80;;;12.70;99.90;;;;;;20988378;28;20078;-48
2021/08/25 21:39:22;;;;;;;7.82;4.88;;;12.30;99.90;;;;;;20987585;28;20041;-48
2021/08/25 21:49:23;;;;;;;8.75;4.50;;;12.20;99.90;;;;;;20987090;28;20389;-49
2021/08/25 21:59:41;;;;;;;8.63;4.35;;;11.90;99.90;;;;;;20986554;28;20036;-47
2021/08/25 22:09:42;;;;;;;11.32;5.68;;;11.80;99.90;;;;;;20986346;28;20086;-47
2021/08/25 22:19:44;;;;;;;5.60;4.18;;;11.80;99.90;;;;;;20995027;28;20052;-52
2021/08/25 22:29:46;;;;;;;9.57;4.03;;;11.90;99.90;;;;;;20999803;28;20033;-48
2021/08/25 22:39:48;;;;;;;5.75;3.88;;;11.80;99.90;;;;;;21000691;28;20567;-46
2021/08/25 22:49:49;;;;;;;8.07;5.47;;;11.70;99.90;;;;;;20999567;28;20031;-47
2021/08/25 22:59:51;;;;;;;9.32;5.20;;;11.40;99.90;;;;;;20999213;28;20033;-46
2021/08/25 23:09:55;;;;;;;7.03;4.50;;;11.30;99.90;;;;;;20998284;28;20093;-48
2021/08/25 23:19:57;;;;;;;7.70;4.57;;;11.20;99.90;;;;;;20997635;28;20033;-47
2021/08/25 23:29:59;;;;;;;8.90;5.10;;;11.20;99.90;;;;;;20997071;28;20462;-46
2021/08/25 23:40:00;;;;;;;7.63;4.70;;;11.00;99.90;;;;;;20995625;28;20044;-47
2021/08/25 23:50:03;;;;;;;8.57;4.60;;;11.10;99.90;;;;;;20995189;28;20474;-46
